sensor_id;sensor_type;location;lat;lon;timestamp;pressure;altitude;pressure_sealevel;temperature;humidity
75617;BME280;64200;55.426;37.758;2023-04-06T00:00:42;99870.53;;;6.94;60.41
75617;BME280;64200;55.426;37.758;2023-04-06T00:05:42;99870.38;;;6.85;60.51
75617;BME280;64200;55.426;37.758;2023-04-06T00:10:43;99866.06;;;6.84;59.87
75617;BME280;64200;55.426;37.758;2023-04-06T00:15:44;99862.31;;;6.74;60.84
75617;BME280;64200;55.426;37.758;2023-04-06T00:20:44;99868.38;;;6.69;60.60
75617;BME280;64200;55.426;37.758;2023-04-06T00:25:45;99873.84;;;6.56;61.18
75617;BME280;64200;55.426;37.758;2023-04-06T00:30:45;99866.56;;;6.46;61.50
75617;BME280;64200;55.426;37.758;2023-04-06T00:35:46;99867.94;;;6.38;62.16
75617;BME280;64200;55.426;37.758;2023-04-06T00:40:47;99863.81;;;6.29;62.33
75617;BME280;64200;55.426;37.758;2023-04-06T00:45:47;99871.31;;;6.29;62.17
75617;BME280;64200;55.426;37.758;2023-04-06T00:50:48;99859.72;;;6.18;62.01
75617;BME280;64200;55.426;37.758;2023-04-06T00:55:48;99854.41;;;6.07;62.99
75617;BME280;64200;55.426;37.758;2023-04-06T01:00:49;99852.88;;;6.06;62.35
75617;BME280;64200;55.426;37.758;2023-04-06T01:05:51;99844.75;;;5.95;63.21
75617;BME280;64200;55.426;37.758;2023-04-06T01:10:55;99845.69;;;5.88;63.08
75617;BME280;64200;55.426;37.758;2023-04-06T01:15:56;99846.63;;;5.81;63.33
75617;BME280;64200;55.426;37.758;2023-04-06T01:20:57;99846.00;;;5.74;63.49
75617;BME280;64200;55.426;37.758;2023-04-06T01:25:58;99847.19;;;5.73;63.51
75617;BME280;64200;55.426;37.758;2023-04-06T01:30:59;99843.66;;;5.72;63.80
75617;BME280;64200;55.426;37.758;2023-04-06T01:35:59;99846.28;;;5.79;63.28
75617;BME280;64200;55.426;37.758;2023-04-06T01:41:00;99860.78;;;5.67;63.17
75617;BME280;64200;55.426;37.758;2023-04-06T01:46:00;99867.22;;;5.60;63.96
75617;BME280;64200;55.426;37.758;2023-04-06T01:51:01;99860.28;;;5.52;63.99
75617;BME280;64200;55.426;37.758;2023-04-06T01:56:02;99859.72;;;5.41;64.22
75617;BME280;64200;55.426;37.758;2023-04-06T02:01:02;99866.44;;;5.40;63.94
75617;BME280;64200;55.426;37.758;2023-04-06T02:06:03;99871.34;;;5.32;64.72
75617;BME280;64200;55.426;37.758;2023-04-06T02:11:04;99878.38;;;5.37;64.12
75617;BME280;64200;55.426;37.758;2023-04-06T02:16:05;99880.66;;;5.42;64.34
75617;BME280;64200;55.426;37.758;2023-04-06T02:21:05;99887.38;;;5.41;64.26
75617;BME280;64200;55.426;37.758;2023-04-06T02:26:06;99886.66;;;5.37;64.22
75617;BME280;64200;55.426;37.758;2023-04-06T02:31:08;99894.31;;;5.29;64.74
75617;BME280;64200;55.426;37.758;2023-04-06T02:36:08;99887.28;;;5.24;64.30
75617;BME280;64200;55.426;37.758;2023-04-06T02:41:09;99896.38;;;5.25;64.72
75617;BME280;64200;55.426;37.758;2023-04-06T02:46:10;99894.78;;;5.24;64.76
75617;BME280;64200;55.426;37.758;2023-04-06T02:51:10;99894.44;;;5.22;64.39
75617;BME280;64200;55.426;37.758;2023-04-06T02:56:11;99893.97;;;5.27;64.53
75617;BME280;64200;55.426;37.758;2023-04-06T03:01:11;99904.75;;;5.21;64.28
75617;BME280;64200;55.426;37.758;2023-04-06T03:06:12;99906.34;;;5.19;64.78
75617;BME280;64200;55.426;37.758;2023-04-06T03:11:12;99900.94;;;5.12;64.91
75617;BME280;64200;55.426;37.758;2023-04-06T03:16:13;99909.66;;;5.10;64.98
75617;BME280;64200;55.426;37.758;2023-04-06T03:21:13;99899.69;;;4.92;65.09
75617;BME280;64200;55.426;37.758;2023-04-06T03:26:17;99912.00;;;5.12;65.05
75617;BME280;64200;55.426;37.758;2023-04-06T03:31:17;99919.84;;;5.17;65.01
75617;BME280;64200;55.426;37.758;2023-04-06T03:36:18;99927.63;;;5.22;64.74
75617;BME280;64200;55.426;37.758;2023-04-06T03:41:18;99921.97;;;5.29;64.24
75617;BME280;64200;55.426;37.758;2023-04-06T03:46:19;99929.00;;;5.34;64.37
75617;BME280;64200;55.426;37.758;2023-04-06T03:51:20;99928.75;;;5.48;64.55
75617;BME280;64200;55.426;37.758;2023-04-06T03:56:21;99942.84;;;5.34;64.41
75617;BME280;64200;55.426;37.758;2023-04-06T04:01:22;99941.00;;;5.47;63.89
75617;BME280;64200;55.426;37.758;2023-04-06T04:06:22;99941.59;;;5.58;63.96
75617;BME280;64200;55.426;37.758;2023-04-06T04:11:23;99953.66;;;5.68;63.73
75617;BME280;64200;55.426;37.758;2023-04-06T04:16:23;99947.56;;;5.77;63.10
75617;BME280;64200;55.426;37.758;2023-04-06T04:21:24;99945.22;;;5.75;63.26
75617;BME280;64200;55.426;37.758;2023-04-06T04:26:25;99957.34;;;5.81;63.52
75617;BME280;64200;55.426;37.758;2023-04-06T04:31:26;99953.00;;;6.04;62.82
75617;BME280;64200;55.426;37.758;2023-04-06T04:36:26;99955.59;;;6.11;62.38
75617;BME280;64200;55.426;37.758;2023-04-06T04:41:27;99955.00;;;6.20;62.14
75617;BME280;64200;55.426;37.758;2023-04-06T04:46:27;99953.66;;;6.28;61.78
75617;BME280;64200;55.426;37.758;2023-04-06T04:51:28;99963.28;;;6.40;61.50
75617;BME280;64200;55.426;37.758;2023-04-06T04:56:28;99962.53;;;6.40;61.39
75617;BME280;64200;55.426;37.758;2023-04-06T05:01:29;99975.00;;;6.64;60.70
75617;BME280;64200;55.426;37.758;2023-04-06T05:06:30;99966.09;;;6.73;60.30
75617;BME280;64200;55.426;37.758;2023-04-06T05:11:31;99970.03;;;6.92;59.72
75617;BME280;64200;55.426;37.758;2023-04-06T05:16:33;99966.63;;;7.01;59.52
75617;BME280;64200;55.426;37.758;2023-04-06T05:21:34;99967.41;;;7.18;59.31
75617;BME280;64200;55.426;37.758;2023-04-06T05:26:34;99969.34;;;7.50;58.64
75617;BME280;64200;55.426;37.758;2023-04-06T05:31:35;99974.19;;;7.63;58.33
75617;BME280;64200;55.426;37.758;2023-04-06T05:36:36;99976.22;;;7.75;57.18
75617;BME280;64200;55.426;37.758;2023-04-06T05:41:36;99981.91;;;8.14;57.52
75617;BME280;64200;55.426;37.758;2023-04-06T05:46:37;99977.63;;;8.38;56.44
75617;BME280;64200;55.426;37.758;2023-04-06T05:51:37;99976.09;;;8.50;55.10
75617;BME280;64200;55.426;37.758;2023-04-06T05:56:38;99974.75;;;8.81;55.63
75617;BME280;64200;55.426;37.758;2023-04-06T06:01:39;99986.28;;;9.18;54.16
75617;BME280;64200;55.426;37.758;2023-04-06T06:06:39;99982.19;;;9.57;53.88
75617;BME280;64200;55.426;37.758;2023-04-06T06:11:40;99984.75;;;9.87;52.26
75617;BME280;64200;55.426;37.758;2023-04-06T06:16:41;99975.97;;;10.19;51.66
75617;BME280;64200;55.426;37.758;2023-04-06T06:21:41;99980.69;;;10.54;50.51
75617;BME280;64200;55.426;37.758;2023-04-06T06:26:42;99983.44;;;10.85;50.16
75617;BME280;64200;55.426;37.758;2023-04-06T06:31:43;99975.00;;;11.17;48.86
75617;BME280;64200;55.426;37.758;2023-04-06T06:36:43;99980.00;;;11.31;48.31
75617;BME280;64200;55.426;37.758;2023-04-06T06:41:44;99989.78;;;11.45;47.05
75617;BME280;64200;55.426;37.758;2023-04-06T06:46:44;99989.97;;;11.97;47.38
75617;BME280;64200;55.426;37.758;2023-04-06T06:51:45;99989.97;;;12.68;46.80
75617;BME280;64200;55.426;37.758;2023-04-06T06:56:46;99990.75;;;13.26;45.08
75617;BME280;64200;55.426;37.758;2023-04-06T07:01:47;99979.16;;;13.81;42.85
75617;BME280;64200;55.426;37.758;2023-04-06T07:06:47;99978.72;;;14.13;42.15
75617;BME280;64200;55.426;37.758;2023-04-06T07:11:48;99982.78;;;14.27;41.61
75617;BME280;64200;55.426;37.758;2023-04-06T07:16:48;99990.03;;;14.63;40.98
75617;BME280;64200;55.426;37.758;2023-04-06T07:21:50;99986.91;;;14.91;39.94
75617;BME280;64200;55.426;37.758;2023-04-06T07:26:53;99987.41;;;15.31;39.66
75617;BME280;64200;55.426;37.758;2023-04-06T07:31:54;99992.78;;;15.90;38.58
75617;BME280;64200;55.426;37.758;2023-04-06T07:36:55;99985.91;;;16.49;37.54
75617;BME280;64200;55.426;37.758;2023-04-06T07:41:56;100002.44;;;17.00;36.63
75617;BME280;64200;55.426;37.758;2023-04-06T07:46:57;99995.63;;;17.72;34.59
75617;BME280;64200;55.426;37.758;2023-04-06T07:51:58;99983.31;;;17.81;32.99
75617;BME280;64200;55.426;37.758;2023-04-06T07:56:58;99992.94;;;18.86;32.34
75617;BME280;64200;55.426;37.758;2023-04-06T08:01:59;99990.53;;;19.29;30.94
75617;BME280;64200;55.426;37.758;2023-04-06T08:06:59;99995.91;;;20.39;28.92
75617;BME280;64200;55.426;37.758;2023-04-06T08:12:00;99982.97;;;21.04;28.33
75617;BME280;64200;55.426;37.758;2023-04-06T08:17:00;99999.63;;;21.38;27.46
75617;BME280;64200;55.426;37.758;2023-04-06T08:22:01;99986.09;;;22.72;25.78
75617;BME280;64200;55.426;37.758;2023-04-06T08:27:02;99992.59;;;23.80;25.20
75617;BME280;64200;55.426;37.758;2023-04-06T08:32:03;99991.44;;;24.65;24.26
75617;BME280;64200;55.426;37.758;2023-04-06T08:37:06;99987.09;;;24.72;21.94
75617;BME280;64200;55.426;37.758;2023-04-06T08:42:12;99977.31;;;25.46;21.63
75617;BME280;64200;55.426;37.758;2023-04-06T08:47:16;99993.78;;;26.13;20.73
75617;BME280;64200;55.426;37.758;2023-04-06T08:52:20;100005.44;;;25.71;20.13
75617;BME280;64200;55.426;37.758;2023-04-06T08:57:20;99983.53;;;25.66;20.99
75617;BME280;64200;55.426;37.758;2023-04-06T09:02:21;99976.31;;;26.86;19.22
75617;BME280;64200;55.426;37.758;2023-04-06T09:07:22;99979.09;;;28.21;17.96
75617;BME280;64200;55.426;37.758;2023-04-06T09:12:28;99983.31;;;27.31;19.20
75617;BME280;64200;55.426;37.758;2023-04-06T09:17:31;99987.22;;;27.59;18.58
75617;BME280;64200;55.426;37.758;2023-04-06T09:22:38;99982.28;;;28.84;17.65
75617;BME280;64200;55.426;37.758;2023-04-06T09:27:38;99995.69;;;30.31;16.98
75617;BME280;64200;55.426;37.758;2023-04-06T09:32:49;99979.44;;;31.00;15.49
75617;BME280;64200;55.426;37.758;2023-04-06T09:37:51;99985.53;;;29.05;16.27
75617;BME280;64200;55.426;37.758;2023-04-06T09:42:52;99991.81;;;32.20;14.83
75617;BME280;64200;55.426;37.758;2023-04-06T09:47:54;99989.47;;;33.01;13.97
75617;BME280;64200;55.426;37.758;2023-04-06T09:52:57;99982.53;;;33.16;12.47
75617;BME280;64200;55.426;37.758;2023-04-06T09:58:07;99990.25;;;32.38;12.06
75617;BME280;64200;55.426;37.758;2023-04-06T10:03:54;99984.31;;;31.85;14.00
75617;BME280;64200;55.426;37.758;2023-04-06T10:08:56;99979.25;;;34.10;12.23
75617;BME280;64200;55.426;37.758;2023-04-06T10:13:58;99978.16;;;34.51;11.80
75617;BME280;64200;55.426;37.758;2023-04-06T10:19:04;99977.34;;;35.09;11.20
75617;BME280;64200;55.426;37.758;2023-04-06T10:24:08;99978.34;;;33.29;11.72
75617;BME280;64200;55.426;37.758;2023-04-06T10:29:13;99978.63;;;35.06;11.22
75617;BME280;64200;55.426;37.758;2023-04-06T10:34:14;99969.56;;;36.15;10.10
75617;BME280;64200;55.426;37.758;2023-04-06T10:39:24;99973.19;;;36.01;10.69
75617;BME280;64200;55.426;37.758;2023-04-06T10:44:26;99965.78;;;35.73;10.06
75617;BME280;64200;55.426;37.758;2023-04-06T10:49:26;99961.97;;;35.96;10.60
75617;BME280;64200;55.426;37.758;2023-04-06T10:54:27;99955.13;;;37.58;9.50
75617;BME280;64200;55.426;37.758;2023-04-06T10:59:29;99966.38;;;37.95;9.03
75617;BME280;64200;55.426;37.758;2023-04-06T11:04:31;99964.53;;;35.38;9.24
75617;BME280;64200;55.426;37.758;2023-04-06T11:09:32;99964.75;;;37.76;9.28
75617;BME280;64200;55.426;37.758;2023-04-06T11:14:32;99961.09;;;39.06;8.28
75617;BME280;64200;55.426;37.758;2023-04-06T11:19:33;99968.28;;;39.93;7.78
75617;BME280;64200;55.426;37.758;2023-04-06T11:24:36;99963.72;;;39.33;7.17
75617;BME280;64200;55.426;37.758;2023-04-06T11:29:37;99962.38;;;39.37;8.49
75617;BME280;64200;55.426;37.758;2023-04-06T11:34:39;99960.50;;;40.58;7.32
75617;BME280;64200;55.426;37.758;2023-04-06T11:39:50;99960.56;;;41.22;6.88
75617;BME280;64200;55.426;37.758;2023-04-06T11:44:54;99953.91;;;40.17;7.03
75617;BME280;64200;55.426;37.758;2023-04-06T11:49:55;99955.16;;;39.56;6.92
75617;BME280;64200;55.426;37.758;2023-04-06T11:54:56;99947.03;;;38.02;7.37
75617;BME280;64200;55.426;37.758;2023-04-06T11:59:57;99939.13;;;37.43;8.08
75617;BME280;64200;55.426;37.758;2023-04-06T12:04:58;99947.59;;;37.53;7.30
75617;BME280;64200;55.426;37.758;2023-04-06T12:10:00;99945.50;;;37.39;7.80
75617;BME280;64200;55.426;37.758;2023-04-06T12:15:01;99929.47;;;33.11;9.55
75617;BME280;64200;55.426;37.758;2023-04-06T12:20:02;99925.78;;;35.45;9.32
75617;BME280;64200;55.426;37.758;2023-04-06T12:25:03;99939.34;;;36.20;8.23
75617;BME280;64200;55.426;37.758;2023-04-06T12:30:04;99935.19;;;35.20;8.81
75617;BME280;64200;55.426;37.758;2023-04-06T12:35:05;99932.91;;;35.30;9.32
75617;BME280;64200;55.426;37.758;2023-04-06T12:40:06;99922.84;;;34.70;9.11
75617;BME280;64200;55.426;37.758;2023-04-06T12:45:08;99925.63;;;34.80;8.71
75617;BME280;64200;55.426;37.758;2023-04-06T12:50:09;99911.72;;;28.05;12.02
75617;BME280;64200;55.426;37.758;2023-04-06T12:55:10;99888.19;;;24.67;14.98
75617;BME280;64200;55.426;37.758;2023-04-06T13:00:11;99893.22;;;23.42;16.28
75617;BME280;64200;55.426;37.758;2023-04-06T13:05:13;99897.31;;;22.79;17.25
75617;BME280;64200;55.426;37.758;2023-04-06T13:10:15;99891.56;;;21.36;19.08
75617;BME280;64200;55.426;37.758;2023-04-06T13:15:15;99898.91;;;21.26;19.13
75617;BME280;64200;55.426;37.758;2023-04-06T13:20:16;99889.47;;;20.44;20.99
75617;BME280;64200;55.426;37.758;2023-04-06T13:25:17;99884.00;;;19.91;21.40
75617;BME280;64200;55.426;37.758;2023-04-06T13:30:17;99888.84;;;20.26;21.28
75617;BME280;64200;55.426;37.758;2023-04-06T13:35:18;99892.38;;;19.66;22.03
75617;BME280;64200;55.426;37.758;2023-04-06T13:40:19;99888.69;;;19.35;22.49
75617;BME280;64200;55.426;37.758;2023-04-06T13:45:20;99879.13;;;18.91;23.07
75617;BME280;64200;55.426;37.758;2023-04-06T13:50:21;99884.50;;;18.89;23.13
75617;BME280;64200;55.426;37.758;2023-04-06T13:55:22;99879.66;;;18.67;23.41
75617;BME280;64200;55.426;37.758;2023-04-06T14:00:24;99882.75;;;18.69;23.76
75617;BME280;64200;55.426;37.758;2023-04-06T14:05:25;99878.66;;;18.64;24.04
75617;BME280;64200;55.426;37.758;2023-04-06T14:10:27;99885.59;;;18.57;23.72
75617;BME280;64200;55.426;37.758;2023-04-06T14:15:28;99883.84;;;17.98;25.20
75617;BME280;64200;55.426;37.758;2023-04-06T14:20:33;99877.88;;;17.79;25.28
75617;BME280;64200;55.426;37.758;2023-04-06T14:25:33;99878.66;;;17.73;24.94
75617;BME280;64200;55.426;37.758;2023-04-06T14:30:34;99880.97;;;17.75;25.71
75617;BME280;64200;55.426;37.758;2023-04-06T14:35:38;99874.78;;;17.65;25.50
75617;BME280;64200;55.426;37.758;2023-04-06T14:40:39;99884.75;;;17.38;25.38
75617;BME280;64200;55.426;37.758;2023-04-06T14:45:39;99882.66;;;17.33;25.78
75617;BME280;64200;55.426;37.758;2023-04-06T14:50:40;99876.44;;;17.12;26.30
75617;BME280;64200;55.426;37.758;2023-04-06T14:55:40;99895.63;;;17.08;26.09
75617;BME280;64200;55.426;37.758;2023-04-06T15:00:44;99875.34;;;16.98;26.81
75617;BME280;64200;55.426;37.758;2023-04-06T15:05:44;99888.88;;;16.88;26.88
75617;BME280;64200;55.426;37.758;2023-04-06T15:10:45;99890.00;;;16.64;27.46
75617;BME280;64200;55.426;37.758;2023-04-06T15:15:46;99883.84;;;16.23;28.44
75617;BME280;64200;55.426;37.758;2023-04-06T15:20:46;99890.91;;;16.12;28.35
75617;BME280;64200;55.426;37.758;2023-04-06T15:25:47;99903.13;;;16.04;28.67
75617;BME280;64200;55.426;37.758;2023-04-06T15:30:48;99897.56;;;15.83;28.68
75617;BME280;64200;55.426;37.758;2023-04-06T15:35:49;99901.50;;;15.71;28.86
75617;BME280;64200;55.426;37.758;2023-04-06T15:40:50;99905.06;;;15.45;28.97
75617;BME280;64200;55.426;37.758;2023-04-06T15:45:50;99903.19;;;15.16;29.41
75617;BME280;64200;55.426;37.758;2023-04-06T15:50:51;99913.91;;;14.97;29.74
75617;BME280;64200;55.426;37.758;2023-04-06T15:56:03;99923.81;;;14.92;29.36
75617;BME280;64200;55.426;37.758;2023-04-06T16:01:15;99930.38;;;14.68;29.78
75617;BME280;64200;55.426;37.758;2023-04-06T16:06:18;99928.28;;;14.48;29.85
75617;BME280;64200;55.426;37.758;2023-04-06T16:11:18;99924.31;;;14.25;30.22
75617;BME280;64200;55.426;37.758;2023-04-06T16:16:20;99935.38;;;14.14;29.66
75617;BME280;64200;55.426;37.758;2023-04-06T16:21:21;99950.84;;;14.09;29.54
75617;BME280;64200;55.426;37.758;2023-04-06T16:26:21;99963.13;;;13.97;29.80
75617;BME280;64200;55.426;37.758;2023-04-06T16:31:23;99963.47;;;13.75;30.00
75617;BME280;64200;55.426;37.758;2023-04-06T16:36:25;99956.47;;;13.55;30.79
75617;BME280;64200;55.426;37.758;2023-04-06T16:41:30;99962.66;;;13.44;30.35
75617;BME280;64200;55.426;37.758;2023-04-06T16:46:32;99972.38;;;13.34;30.29
75617;BME280;64200;55.426;37.758;2023-04-06T16:51:33;99979.25;;;13.24;30.56
75617;BME280;64200;55.426;37.758;2023-04-06T16:56:34;99982.53;;;13.46;30.23
75617;BME280;64200;55.426;37.758;2023-04-06T17:01:35;99984.94;;;13.29;30.38
75617;BME280;64200;55.426;37.758;2023-04-06T17:06:35;99991.97;;;13.00;30.66
75617;BME280;64200;55.426;37.758;2023-04-06T17:11:36;99993.28;;;12.90;30.45
75617;BME280;64200;55.426;37.758;2023-04-06T17:16:36;100000.06;;;12.65;31.28
75617;BME280;64200;55.426;37.758;2023-04-06T17:21:38;100000.34;;;12.76;30.94
75617;BME280;64200;55.426;37.758;2023-04-06T17:26:40;100008.69;;;12.43;31.48
75617;BME280;64200;55.426;37.758;2023-04-06T17:31:43;100015.22;;;12.40;31.31
75617;BME280;64200;55.426;37.758;2023-04-06T17:36:44;100012.31;;;12.16;31.46
75617;BME280;64200;55.426;37.758;2023-04-06T17:41:45;100022.72;;;12.06;31.38
75617;BME280;64200;55.426;37.758;2023-04-06T17:46:46;100025.06;;;11.98;31.58
75617;BME280;64200;55.426;37.758;2023-04-06T17:51:47;100024.56;;;11.81;31.32
75617;BME280;64200;55.426;37.758;2023-04-06T17:56:48;100020.22;;;11.71;31.50
75617;BME280;64200;55.426;37.758;2023-04-06T18:01:50;100032.47;;;11.55;31.71
75617;BME280;64200;55.426;37.758;2023-04-06T18:06:51;100036.91;;;11.34;31.62
75617;BME280;64200;55.426;37.758;2023-04-06T18:11:51;100036.44;;;11.26;31.47
75617;BME280;64200;55.426;37.758;2023-04-06T18:16:52;100030.53;;;11.15;31.72
75617;BME280;64200;55.426;37.758;2023-04-06T18:21:53;100041.66;;;11.05;31.06
75617;BME280;64200;55.426;37.758;2023-04-06T18:26:54;100041.81;;;11.02;31.15
75617;BME280;64200;55.426;37.758;2023-04-06T18:31:55;100046.72;;;10.88;30.98
75617;BME280;64200;55.426;37.758;2023-04-06T18:36:57;100046.38;;;10.86;30.55
75617;BME280;64200;55.426;37.758;2023-04-06T18:41:59;100053.31;;;10.72;30.34
75617;BME280;64200;55.426;37.758;2023-04-06T18:47:00;100043.13;;;10.57;30.70
75617;BME280;64200;55.426;37.758;2023-04-06T18:52:00;100054.28;;;10.57;30.76
75617;BME280;64200;55.426;37.758;2023-04-06T18:57:02;100057.63;;;10.42;30.41
75617;BME280;64200;55.426;37.758;2023-04-06T19:02:04;100053.19;;;10.32;30.68
75617;BME280;64200;55.426;37.758;2023-04-06T19:07:04;100060.25;;;10.24;30.58
75617;BME280;64200;55.426;37.758;2023-04-06T19:12:05;100054.72;;;10.11;30.58
75617;BME280;64200;55.426;37.758;2023-04-06T19:17:06;100060.75;;;10.09;30.85
75617;BME280;64200;55.426;37.758;2023-04-06T19:22:06;100051.56;;;9.99;30.85
75617;BME280;64200;55.426;37.758;2023-04-06T19:27:08;100053.81;;;9.92;31.39
75617;BME280;64200;55.426;37.758;2023-04-06T19:32:08;100049.19;;;9.76;31.38
75617;BME280;64200;55.426;37.758;2023-04-06T19:37:10;100041.78;;;9.60;31.43
75617;BME280;64200;55.426;37.758;2023-04-06T19:42:11;100048.25;;;9.57;31.70
75617;BME280;64200;55.426;37.758;2023-04-06T19:47:13;100055.63;;;9.51;31.69
75617;BME280;64200;55.426;37.758;2023-04-06T19:52:14;100053.38;;;9.45;31.54
75617;BME280;64200;55.426;37.758;2023-04-06T19:57:17;100058.75;;;9.40;31.91
75617;BME280;64200;55.426;37.758;2023-04-06T20:02:18;100068.22;;;9.29;31.86
75617;BME280;64200;55.426;37.758;2023-04-06T20:07:18;100078.13;;;9.18;31.92
75617;BME280;64200;55.426;37.758;2023-04-06T20:12:19;100074.03;;;9.09;32.09
75617;BME280;64200;55.426;37.758;2023-04-06T20:17:19;100077.94;;;8.99;32.08
75617;BME280;64200;55.426;37.758;2023-04-06T20:22:21;100071.81;;;8.91;32.14
75617;BME280;64200;55.426;37.758;2023-04-06T20:27:21;100076.13;;;8.79;32.45
75617;BME280;64200;55.426;37.758;2023-04-06T20:32:22;100077.69;;;8.81;32.33
75617;BME280;64200;55.426;37.758;2023-04-06T20:37:22;100075.91;;;8.74;32.65
75617;BME280;64200;55.426;37.758;2023-04-06T20:42:23;100078.44;;;8.68;32.44
75617;BME280;64200;55.426;37.758;2023-04-06T20:47:24;100078.78;;;8.57;32.58
75617;BME280;64200;55.426;37.758;2023-04-06T20:52:26;100089.44;;;8.59;32.59
75617;BME280;64200;55.426;37.758;2023-04-06T20:57:27;100084.41;;;8.54;32.64
75617;BME280;64200;55.426;37.758;2023-04-06T21:02:27;100079.66;;;8.38;32.76
75617;BME280;64200;55.426;37.758;2023-04-06T21:07:29;100077.13;;;8.31;32.91
75617;BME280;64200;55.426;37.758;2023-04-06T21:12:29;100086.41;;;8.24;33.02
75617;BME280;64200;55.426;37.758;2023-04-06T21:17:30;100091.47;;;8.13;33.56
75617;BME280;64200;55.426;37.758;2023-04-06T21:22:31;100096.56;;;8.01;33.73
75617;BME280;64200;55.426;37.758;2023-04-06T21:27:34;100102.03;;;7.88;33.81
75617;BME280;64200;55.426;37.758;2023-04-06T21:32:34;100080.19;;;7.74;33.88
75617;BME280;64200;55.426;37.758;2023-04-06T21:37:36;100102.59;;;7.83;34.09
75617;BME280;64200;55.426;37.758;2023-04-06T21:42:36;100093.63;;;7.76;34.36
75617;BME280;64200;55.426;37.758;2023-04-06T21:47:37;100104.50;;;7.70;34.49
75617;BME280;64200;55.426;37.758;2023-04-06T21:52:37;100101.47;;;7.64;34.67
75617;BME280;64200;55.426;37.758;2023-04-06T21:57:38;100098.88;;;7.57;34.63
75617;BME280;64200;55.426;37.758;2023-04-06T22:02:38;100100.25;;;7.49;35.00
75617;BME280;64200;55.426;37.758;2023-04-06T22:07:40;100098.78;;;7.44;34.97
75617;BME280;64200;55.426;37.758;2023-04-06T22:12:43;100082.81;;;7.32;35.41
75617;BME280;64200;55.426;37.758;2023-04-06T22:17:44;100080.91;;;7.29;35.33
75617;BME280;64200;55.426;37.758;2023-04-06T22:22:44;100090.44;;;7.11;35.72
75617;BME280;64200;55.426;37.758;2023-04-06T22:27:45;100094.06;;;7.08;36.50
75617;BME280;64200;55.426;37.758;2023-04-06T22:32:45;100083.13;;;7.01;35.71
75617;BME280;64200;55.426;37.758;2023-04-06T22:37:46;100092.81;;;6.93;36.91
75617;BME280;64200;55.426;37.758;2023-04-06T22:42:48;100097.75;;;6.85;36.78
75617;BME280;64200;55.426;37.758;2023-04-06T22:47:48;100097.69;;;6.89;37.05
75617;BME280;64200;55.426;37.758;2023-04-06T22:52:49;100095.53;;;6.76;37.44
75617;BME280;64200;55.426;37.758;2023-04-06T22:57:49;100099.13;;;6.77;37.20
75617;BME280;64200;55.426;37.758;2023-04-06T23:02:50;100100.69;;;6.58;37.99
75617;BME280;64200;55.426;37.758;2023-04-06T23:07:50;100094.53;;;6.50;38.46
75617;BME280;64200;55.426;37.758;2023-04-06T23:12:51;100101.06;;;6.40;38.70
75617;BME280;64200;55.426;37.758;2023-04-06T23:17:51;100083.13;;;6.24;38.32
75617;BME280;64200;55.426;37.758;2023-04-06T23:22:52;100097.19;;;6.33;38.25
75617;BME280;64200;55.426;37.758;2023-04-06T23:27:52;100095.28;;;6.30;38.64
75617;BME280;64200;55.426;37.758;2023-04-06T23:32:53;100095.84;;;6.22;38.95
75617;BME280;64200;55.426;37.758;2023-04-06T23:37:53;100087.28;;;6.16;38.84
75617;BME280;64200;55.426;37.758;2023-04-06T23:42:54;100080.16;;;6.15;39.29
75617;BME280;64200;55.426;37.758;2023-04-06T23:47:54;100078.81;;;6.03;39.26
75617;BME280;64200;55.426;37.758;2023-04-06T23:52:55;100080.00;;;6.02;39.18
75617;BME280;64200;55.426;37.758;2023-04-06T23:57:57;100075.41;;;5.92;40.07
